sensor_id;sensor_type;location;lat;lon;timestamp;P1;durP1;ratioP1;P2;durP2;ratioP2
86211;SDS011;76867;47.634;8.270;2024-03-23T00:53:25;4.88;;;2.15;;
86211;SDS011;76867;47.634;8.270;2024-03-23T01:03:25;6.00;;;2.33;;
86211;SDS011;76867;47.634;8.270;2024-03-23T01:13:26;5.90;;;2.65;;
86211;SDS011;76867;47.634;8.270;2024-03-23T01:23:27;5.70;;;2.53;;
86211;SDS011;76867;47.634;8.270;2024-03-23T01:33:27;4.95;;;2.78;;
86211;SDS011;76867;47.634;8.270;2024-03-23T01:43:27;5.97;;;2.50;;
86211;SDS011;76867;47.634;8.270;2024-03-23T01:53:27;7.18;;;3.00;;
86211;SDS011;76867;47.634;8.270;2024-03-23T02:03:28;4.53;;;2.50;;
86211;SDS011;76867;47.634;8.270;2024-03-23T02:13:28;5.63;;;2.58;;
86211;SDS011;76867;47.634;8.270;2024-03-23T02:23:29;3.33;;;2.28;;
86211;SDS011;76867;47.634;8.270;2024-03-23T02:33:29;4.18;;;2.17;;
86211;SDS011;76867;47.634;8.270;2024-03-23T02:43:29;4.45;;;2.20;;
86211;SDS011;76867;47.634;8.270;2024-03-23T02:53:29;4.47;;;2.50;;
86211;SDS011;76867;47.634;8.270;2024-03-23T03:03:30;6.40;;;2.78;;
86211;SDS011;76867;47.634;8.270;2024-03-23T03:13:30;5.07;;;2.30;;
86211;SDS011;76867;47.634;8.270;2024-03-23T03:23:30;4.70;;;2.58;;
86211;SDS011;76867;47.634;8.270;2024-03-23T03:33:30;6.50;;;3.05;;
86211;SDS011;76867;47.634;8.270;2024-03-23T03:43:30;4.07;;;2.40;;
86211;SDS011;76867;47.634;8.270;2024-03-23T03:53:31;5.40;;;2.28;;
86211;SDS011;76867;47.634;8.270;2024-03-23T04:03:31;6.10;;;3.13;;
86211;SDS011;76867;47.634;8.270;2024-03-23T04:13:31;4.07;;;2.50;;
86211;SDS011;76867;47.634;8.270;2024-03-23T04:23:32;3.27;;;2.30;;
86211;SDS011;76867;47.634;8.270;2024-03-23T04:33:32;3.67;;;2.15;;
86211;SDS011;76867;47.634;8.270;2024-03-23T04:43:32;5.00;;;2.40;;
86211;SDS011;76867;47.634;8.270;2024-03-23T04:53:33;6.57;;;3.00;;
86211;SDS011;76867;47.634;8.270;2024-03-23T05:03:33;6.78;;;2.72;;
86211;SDS011;76867;47.634;8.270;2024-03-23T05:13:33;5.32;;;2.58;;
86211;SDS011;76867;47.634;8.270;2024-03-23T05:23:33;5.63;;;3.15;;
86211;SDS011;76867;47.634;8.270;2024-03-23T05:43:34;5.00;;;2.50;;
86211;SDS011;76867;47.634;8.270;2024-03-23T05:53:34;5.35;;;3.05;;
86211;SDS011;76867;47.634;8.270;2024-03-23T06:03:35;4.72;;;2.45;;
86211;SDS011;76867;47.634;8.270;2024-03-23T06:13:36;4.47;;;2.80;;
86211;SDS011;76867;47.634;8.270;2024-03-23T06:23:36;7.07;;;3.63;;
86211;SDS011;76867;47.634;8.270;2024-03-23T06:33:37;5.53;;;3.40;;
86211;SDS011;76867;47.634;8.270;2024-03-23T06:43:37;5.35;;;3.05;;
86211;SDS011;76867;47.634;8.270;2024-03-23T06:53:37;6.18;;;3.42;;
86211;SDS011;76867;47.634;8.270;2024-03-23T07:03:38;6.05;;;3.25;;
86211;SDS011;76867;47.634;8.270;2024-03-23T07:13:38;7.63;;;4.35;;
86211;SDS011;76867;47.634;8.270;2024-03-23T07:23:41;6.43;;;3.95;;
86211;SDS011;76867;47.634;8.270;2024-03-23T07:33:45;6.57;;;3.63;;
86211;SDS011;76867;47.634;8.270;2024-03-23T07:43:47;5.43;;;2.92;;
86211;SDS011;76867;47.634;8.270;2024-03-23T07:53:48;2.85;;;1.27;;
86211;SDS011;76867;47.634;8.270;2024-03-23T08:03:49;0.75;;;0.45;;
86211;SDS011;76867;47.634;8.270;2024-03-23T08:13:49;1.00;;;0.50;;
86211;SDS011;76867;47.634;8.270;2024-03-23T08:23:49;0.85;;;0.40;;
86211;SDS011;76867;47.634;8.270;2024-03-23T08:33:50;0.95;;;0.25;;
86211;SDS011;76867;47.634;8.270;2024-03-23T08:43:50;0.32;;;0.20;;
86211;SDS011;76867;47.634;8.270;2024-03-23T08:53:51;0.80;;;0.30;;
86211;SDS011;76867;47.634;8.270;2024-03-23T09:03:51;2.95;;;1.00;;
86211;SDS011;76867;47.634;8.270;2024-03-23T09:13:52;1.70;;;0.60;;
86211;SDS011;76867;47.634;8.270;2024-03-23T09:23:52;3.10;;;0.63;;
86211;SDS011;76867;47.634;8.270;2024-03-23T09:33:53;1.25;;;0.50;;
86211;SDS011;76867;47.634;8.270;2024-03-23T09:43:54;2.97;;;1.00;;
86211;SDS011;76867;47.634;8.270;2024-03-23T09:53:54;4.30;;;0.82;;
86211;SDS011;76867;47.634;8.270;2024-03-23T10:03:54;2.63;;;0.80;;
86211;SDS011;76867;47.634;8.270;2024-03-23T10:13:55;2.35;;;0.75;;
86211;SDS011;76867;47.634;8.270;2024-03-23T10:23:56;4.38;;;1.63;;
86211;SDS011;76867;47.634;8.270;2024-03-23T10:34:08;3.20;;;0.70;;
86211;SDS011;76867;47.634;8.270;2024-03-23T10:44:08;2.85;;;0.85;;
86211;SDS011;76867;47.634;8.270;2024-03-23T10:54:09;3.03;;;1.08;;
86211;SDS011;76867;47.634;8.270;2024-03-23T11:04:17;3.58;;;1.08;;
86211;SDS011;76867;47.634;8.270;2024-03-23T11:14:42;5.03;;;1.23;;
86211;SDS011;76867;47.634;8.270;2024-03-23T11:24:49;5.25;;;1.20;;
86211;SDS011;76867;47.634;8.270;2024-03-23T11:34:50;3.22;;;0.80;;
86211;SDS011;76867;47.634;8.270;2024-03-23T11:44:50;2.47;;;0.90;;
86211;SDS011;76867;47.634;8.270;2024-03-23T11:54:50;1.65;;;0.75;;
86211;SDS011;76867;47.634;8.270;2024-03-23T12:04:51;0.98;;;0.55;;
86211;SDS011;76867;47.634;8.270;2024-03-23T12:25:06;1.27;;;0.40;;
86211;SDS011;76867;47.634;8.270;2024-03-23T12:35:06;2.28;;;0.93;;
86211;SDS011;76867;47.634;8.270;2024-03-23T12:45:08;5.38;;;1.02;;
86211;SDS011;76867;47.634;8.270;2024-03-23T12:55:08;6.32;;;1.50;;
86211;SDS011;76867;47.634;8.270;2024-03-23T13:05:09;2.65;;;0.82;;
86211;SDS011;76867;47.634;8.270;2024-03-23T13:25:09;5.95;;;0.90;;
86211;SDS011;76867;47.634;8.270;2024-03-23T13:35:10;2.47;;;0.80;;
86211;SDS011;76867;47.634;8.270;2024-03-23T13:45:10;4.15;;;1.50;;
86211;SDS011;76867;47.634;8.270;2024-03-23T13:55:11;2.53;;;0.68;;
86211;SDS011;76867;47.634;8.270;2024-03-23T14:05:15;3.97;;;1.10;;
86211;SDS011;76867;47.634;8.270;2024-03-23T14:15:15;5.75;;;1.33;;
86211;SDS011;76867;47.634;8.270;2024-03-23T14:25:16;2.33;;;0.60;;
86211;SDS011;76867;47.634;8.270;2024-03-23T14:35:16;2.97;;;0.50;;
86211;SDS011;76867;47.634;8.270;2024-03-23T14:45:16;0.75;;;0.40;;
86211;SDS011;76867;47.634;8.270;2024-03-23T14:55:17;3.75;;;0.60;;
86211;SDS011;76867;47.634;8.270;2024-03-23T15:05:18;2.28;;;0.50;;
86211;SDS011;76867;47.634;8.270;2024-03-23T15:15:18;1.08;;;0.30;;
86211;SDS011;76867;47.634;8.270;2024-03-23T15:35:18;5.28;;;0.60;;
86211;SDS011;76867;47.634;8.270;2024-03-23T15:45:21;1.42;;;0.30;;
86211;SDS011;76867;47.634;8.270;2024-03-23T15:55:22;4.20;;;1.35;;
86211;SDS011;76867;47.634;8.270;2024-03-23T16:05:22;2.08;;;0.60;;
86211;SDS011;76867;47.634;8.270;2024-03-23T16:15:22;0.93;;;0.25;;
86211;SDS011;76867;47.634;8.270;2024-03-23T16:25:23;0.77;;;0.30;;
86211;SDS011;76867;47.634;8.270;2024-03-23T16:35:24;4.03;;;0.50;;
86211;SDS011;76867;47.634;8.270;2024-03-23T16:45:25;2.20;;;0.70;;
86211;SDS011;76867;47.634;8.270;2024-03-23T16:55:25;3.58;;;0.57;;
86211;SDS011;76867;47.634;8.270;2024-03-23T17:05:25;2.72;;;0.50;;
86211;SDS011;76867;47.634;8.270;2024-03-23T17:15:25;3.45;;;0.90;;
86211;SDS011;76867;47.634;8.270;2024-03-23T17:25:26;1.58;;;0.98;;
86211;SDS011;76867;47.634;8.270;2024-03-23T17:35:26;1.17;;;0.47;;
86211;SDS011;76867;47.634;8.270;2024-03-23T17:45:27;1.48;;;0.20;;
86211;SDS011;76867;47.634;8.270;2024-03-23T17:55:27;3.20;;;0.55;;
86211;SDS011;76867;47.634;8.270;2024-03-23T18:05:28;2.80;;;1.02;;
86211;SDS011;76867;47.634;8.270;2024-03-23T18:15:28;3.47;;;1.00;;
86211;SDS011;76867;47.634;8.270;2024-03-23T18:25:28;4.18;;;1.35;;
86211;SDS011;76867;47.634;8.270;2024-03-23T18:35:28;2.55;;;0.70;;
86211;SDS011;76867;47.634;8.270;2024-03-23T18:45:29;0.50;;;0.20;;
86211;SDS011;76867;47.634;8.270;2024-03-23T18:55:31;1.80;;;0.50;;
86211;SDS011;76867;47.634;8.270;2024-03-23T19:05:31;3.05;;;1.15;;
86211;SDS011;76867;47.634;8.270;2024-03-23T19:15:32;1.35;;;0.40;;
86211;SDS011;76867;47.634;8.270;2024-03-23T19:35:33;1.83;;;0.70;;
86211;SDS011;76867;47.634;8.270;2024-03-23T19:45:33;7.78;;;1.98;;
86211;SDS011;76867;47.634;8.270;2024-03-23T19:55:37;3.85;;;0.80;;
86211;SDS011;76867;47.634;8.270;2024-03-23T20:05:37;0.90;;;0.40;;
86211;SDS011;76867;47.634;8.270;2024-03-23T20:15:37;0.75;;;0.30;;
86211;SDS011;76867;47.634;8.270;2024-03-23T20:25:38;3.33;;;0.73;;
86211;SDS011;76867;47.634;8.270;2024-03-23T20:35:47;1.33;;;0.35;;
86211;SDS011;76867;47.634;8.270;2024-03-23T20:45:58;2.67;;;0.35;;
86211;SDS011;76867;47.634;8.270;2024-03-23T20:55:59;1.40;;;0.30;;
86211;SDS011;76867;47.634;8.270;2024-03-23T21:16:03;1.85;;;0.50;;
86211;SDS011;76867;47.634;8.270;2024-03-23T21:26:04;1.08;;;0.30;;
86211;SDS011;76867;47.634;8.270;2024-03-23T21:36:05;0.80;;;0.40;;
86211;SDS011;76867;47.634;8.270;2024-03-23T21:46:06;0.85;;;0.38;;
86211;SDS011;76867;47.634;8.270;2024-03-23T21:56:08;3.22;;;0.70;;
86211;SDS011;76867;47.634;8.270;2024-03-23T22:06:08;2.00;;;0.90;;
86211;SDS011;76867;47.634;8.270;2024-03-23T22:16:08;0.93;;;0.43;;
86211;SDS011;76867;47.634;8.270;2024-03-23T22:26:09;2.15;;;0.40;;
86211;SDS011;76867;47.634;8.270;2024-03-23T22:36:09;2.03;;;0.80;;
86211;SDS011;76867;47.634;8.270;2024-03-23T22:46:09;3.03;;;0.85;;
86211;SDS011;76867;47.634;8.270;2024-03-23T22:56:09;2.08;;;0.70;;
86211;SDS011;76867;47.634;8.270;2024-03-23T23:06:10;3.40;;;0.60;;
86211;SDS011;76867;47.634;8.270;2024-03-23T23:16:10;1.33;;;0.50;;
86211;SDS011;76867;47.634;8.270;2024-03-23T23:26:10;1.88;;;0.52;;
86211;SDS011;76867;47.634;8.270;2024-03-23T23:36:10;0.57;;;0.35;;
86211;SDS011;76867;47.634;8.270;2024-03-23T23:46:11;1.45;;;0.52;;
86211;SDS011;76867;47.634;8.270;2024-03-23T23:56:11;2.88;;;0.40;;
